createdAt,value
2019-05-22T00:00:23.237Z,90.79
2019-05-22T00:01:23.184Z,90.63
2019-05-22T00:02:23.173Z,90.83
2019-05-22T00:03:23.165Z,90.83
2019-05-22T00:04:23.155Z,90.12
2019-05-22T00:05:23.139Z,89.92
2019-05-22T00:06:23.171Z,88.85
2019-05-22T00:07:23.117Z,89.06
2019-05-22T00:08:23.107Z,89.26
2019-05-22T00:09:23.097Z,88.75
2019-05-22T00:10:23.088Z,88.85
2019-05-22T00:11:23.074Z,89.40
2019-05-22T00:12:23.104Z,89.36
2019-05-22T00:13:23.061Z,89.00
2019-05-22T00:14:23.064Z,88.39
2019-05-22T00:15:23.032Z,89.20
2019-05-22T00:16:23.019Z,89.70
2019-05-22T00:17:23.018Z,89.10
2019-05-22T00:18:23.023Z,89.00
2019-05-22T00:19:22.989Z,88.79
2019-05-22T00:20:22.976Z,88.90
2019-05-22T00:21:22.964Z,88.90
2019-05-22T00:22:22.954Z,88.90
2019-05-22T00:23:22.980Z,88.79
2019-05-22T00:24:22.933Z,87.88
2019-05-22T00:25:22.921Z,88.29
2019-05-22T00:26:22.912Z,88.09
2019-05-22T00:27:22.901Z,88.13
2019-05-22T00:28:22.891Z,88.43
2019-05-22T00:29:22.917Z,88.43
2019-05-22T00:30:22.879Z,87.99
2019-05-22T00:31:22.859Z,88.19
2019-05-22T00:32:22.849Z,87.48
2019-05-22T00:33:22.838Z,88.19
2019-05-22T00:34:22.825Z,87.73
2019-05-22T00:35:22.853Z,87.62
2019-05-22T00:36:22.808Z,87.73
2019-05-22T00:37:22.804Z,87.93
2019-05-22T00:38:22.783Z,87.52
2019-05-22T00:39:22.772Z,87.73
2019-05-22T00:40:22.772Z,87.52
2019-05-22T00:41:22.776Z,88.43
2019-05-22T00:42:22.741Z,89.18
2019-05-22T00:43:22.732Z,89.14
2019-05-22T00:44:22.725Z,88.43
2019-05-22T00:45:22.710Z,89.75
2019-05-22T00:46:22.724Z,89.54
2019-05-22T00:47:22.689Z,89.04
2019-05-22T00:48:22.678Z,89.65
2019-05-22T00:49:22.669Z,89.28
2019-05-22T00:50:22.660Z,89.28
2019-05-22T00:51:22.673Z,89.28
2019-05-22T00:52:22.634Z,89.18
2019-05-22T00:53:22.623Z,89.24
2019-05-22T00:54:22.613Z,89.48
2019-05-22T00:55:22.604Z,89.48
2019-05-22T00:56:22.629Z,89.54
2019-05-22T00:57:22.581Z,89.75
2019-05-22T00:58:22.571Z,89.95
2019-05-22T00:59:22.560Z,89.89
2019-05-22T01:00:22.570Z,89.89
2019-05-22T01:01:22.732Z,89.89
2019-05-22T01:02:22.554Z,89.85
2019-05-22T01:03:22.521Z,90.20
2019-05-22T01:04:22.510Z,89.79
2019-05-22T01:05:22.497Z,89.99
2019-05-22T01:06:22.516Z,90.09
2019-05-22T01:07:22.500Z,89.79
2019-05-22T01:08:22.465Z,90.30
2019-05-22T01:09:22.456Z,90.50
2019-05-22T01:10:22.442Z,90.20
2019-05-22T01:11:22.432Z,89.69
2019-05-22T01:12:22.458Z,89.18
2019-05-22T01:13:22.416Z,89.69
2019-05-22T01:14:22.406Z,88.68
2019-05-22T01:15:22.390Z,88.48
2019-05-22T01:16:22.381Z,89.69
2019-05-22T01:17:22.372Z,88.88
2019-05-22T01:18:22.386Z,88.78
2019-05-22T01:19:22.350Z,88.68
2019-05-22T01:20:22.340Z,88.88
2019-05-22T01:21:22.331Z,88.88
2019-05-22T01:22:22.317Z,89.12
2019-05-22T01:23:22.357Z,88.68
2019-05-22T01:24:22.296Z,88.78
2019-05-22T01:25:22.284Z,89.12
2019-05-22T01:26:22.274Z,88.92
2019-05-22T01:27:22.303Z,88.72
2019-05-22T01:28:22.254Z,89.02
2019-05-22T01:29:22.278Z,88.82
2019-05-22T01:30:22.230Z,88.51
2019-05-22T01:31:22.221Z,88.92
2019-05-22T01:32:22.211Z,88.92
2019-05-22T01:33:22.201Z,88.82
2019-05-22T01:34:22.190Z,88.92
2019-05-22T01:35:22.205Z,88.92
2019-05-22T01:36:22.197Z,88.82
2019-05-22T01:37:22.159Z,88.92
2019-05-22T01:38:22.146Z,89.12
2019-05-22T01:39:22.136Z,89.83
2019-05-22T01:40:22.163Z,89.43
2019-05-22T01:41:22.116Z,89.43
2019-05-22T01:42:22.108Z,89.23
2019-05-22T01:43:22.094Z,89.43
2019-05-22T01:44:22.096Z,89.32
2019-05-22T01:45:22.074Z,89.32
2019-05-22T01:46:22.107Z,89.57
2019-05-22T01:47:22.053Z,89.53
2019-05-22T01:48:22.042Z,89.53
2019-05-22T01:49:22.037Z,89.83
2019-05-22T01:50:22.033Z,90.03
2019-05-22T01:51:22.034Z,90.14
2019-05-22T01:52:22.006Z,89.94
2019-05-22T01:53:22.000Z,89.43
2019-05-22T01:54:21.979Z,89.83
2019-05-22T01:55:21.968Z,89.37
2019-05-22T01:56:21.994Z,89.94
2019-05-22T01:57:21.944Z,89.73
2019-05-22T01:58:21.937Z,89.43
2019-05-22T01:59:21.935Z,89.43
2019-05-22T02:00:21.915Z,89.32
2019-05-22T02:01:21.939Z,89.23
2019-05-22T02:02:21.892Z,89.37
2019-05-22T02:03:21.885Z,89.37
2019-05-22T02:04:21.871Z,89.77
2019-05-22T02:05:21.860Z,89.57
2019-05-22T02:06:21.852Z,89.47
2019-05-22T02:07:21.878Z,90.08
2019-05-22T02:08:21.828Z,89.81
2019-05-22T02:09:21.826Z,89.57
2019-05-22T02:10:21.806Z,89.47
2019-05-22T02:11:21.798Z,89.67
2019-05-22T02:12:21.783Z,89.67
2019-05-22T02:13:21.810Z,89.37
2019-05-22T02:14:21.763Z,89.67
2019-05-22T02:15:21.752Z,88.76
2019-05-22T02:16:21.740Z,89.26
2019-05-22T02:17:21.731Z,89.47
2019-05-22T02:18:21.718Z,89.41
2019-05-22T02:19:21.747Z,89.77
2019-05-22T02:20:21.699Z,89.47
2019-05-22T02:21:21.702Z,89.47
2019-05-22T02:22:21.677Z,89.47
2019-05-22T02:23:21.667Z,89.67
2019-05-22T02:24:21.692Z,88.96
2019-05-22T02:25:21.643Z,89.51
2019-05-22T02:26:21.631Z,89.72
2019-05-22T02:27:21.627Z,88.90
2019-05-22T02:28:21.611Z,89.51
2019-05-22T02:29:21.600Z,89.31
2019-05-22T02:30:21.629Z,89.41
2019-05-22T02:31:21.581Z,89.51
2019-05-22T02:32:21.567Z,89.41
2019-05-22T02:33:21.565Z,89.81
2019-05-22T02:34:21.545Z,89.87
2019-05-22T02:35:21.532Z,89.81
2019-05-22T02:36:21.558Z,89.72
2019-05-22T02:37:21.513Z,89.26
2019-05-22T02:38:21.510Z,89.01
2019-05-22T02:39:21.541Z,89.31
2019-05-22T02:40:21.480Z,89.21
2019-05-22T02:41:21.469Z,89.41
2019-05-22T02:42:21.498Z,89.01
2019-05-22T02:43:21.450Z,89.01
2019-05-22T02:44:21.436Z,89.11
2019-05-22T02:45:21.440Z,89.92
2019-05-22T02:46:21.413Z,89.51
2019-05-22T02:47:21.754Z,89.41
2019-05-22T02:48:21.390Z,89.31
2019-05-22T02:49:21.465Z,89.41
2019-05-22T02:50:21.370Z,89.45
2019-05-22T02:51:21.364Z,89.41
2019-05-22T02:52:21.347Z,89.41
2019-05-22T02:53:21.374Z,89.96
2019-05-22T02:54:21.327Z,89.81
2019-05-22T02:55:21.329Z,89.86
2019-05-22T02:56:21.308Z,89.92
2019-05-22T02:57:21.295Z,89.92
2019-05-22T02:58:21.293Z,89.81
2019-05-22T02:59:21.306Z,89.86
2019-05-22T03:00:21.271Z,89.51
2019-05-22T03:01:21.248Z,89.72
2019-05-22T03:02:21.243Z,89.61
2019-05-22T03:03:21.231Z,89.72
2019-05-22T03:04:21.217Z,90.02
2019-05-22T03:05:21.253Z,89.41
2019-05-22T03:06:21.194Z,89.31
2019-05-22T03:07:21.183Z,89.96
2019-05-22T03:08:21.192Z,89.81
2019-05-22T03:09:21.163Z,90.26
2019-05-22T03:10:21.188Z,90.26
2019-05-22T03:11:21.139Z,90.47
2019-05-22T03:12:21.130Z,90.36
2019-05-22T03:13:21.120Z,90.36
2019-05-22T03:14:21.108Z,90.47
2019-05-22T03:15:21.097Z,90.26
2019-05-22T03:16:21.121Z,89.96
2019-05-22T03:17:21.075Z,90.06
2019-05-22T03:18:21.086Z,90.22
2019-05-22T03:19:21.054Z,90.22
2019-05-22T03:20:21.083Z,90.36
2019-05-22T03:21:21.031Z,90.53
2019-05-22T03:22:21.094Z,90.53
2019-05-22T03:23:21.009Z,90.97
2019-05-22T03:24:20.998Z,91.08
2019-05-22T03:25:20.985Z,91.08
2019-05-22T03:26:20.980Z,91.24
2019-05-22T03:27:20.964Z,91.08
2019-05-22T03:28:20.987Z,91.08
2019-05-22T03:29:20.990Z,90.88
2019-05-22T03:30:20.961Z,91.48
2019-05-22T03:31:21.007Z,90.97
2019-05-22T03:32:20.914Z,90.88
2019-05-22T03:33:20.932Z,91.17
2019-05-22T03:34:20.892Z,91.38
2019-05-22T03:35:20.887Z,92.09
2019-05-22T03:36:21.064Z,91.89
2019-05-22T03:37:20.857Z,92.29
2019-05-22T03:38:20.868Z,91.89
2019-05-22T03:39:20.838Z,92.29
2019-05-22T03:40:20.825Z,91.89
2019-05-22T03:41:20.839Z,92.40
2019-05-22T03:42:20.802Z,92.90
2019-05-22T03:43:20.846Z,92.44
2019-05-22T03:44:20.785Z,92.13
2019-05-22T03:45:20.770Z,91.83
2019-05-22T03:46:20.759Z,92.24
2019-05-22T03:47:20.748Z,92.24
2019-05-22T03:48:20.736Z,92.33
2019-05-22T03:49:29.968Z,92.54
2019-05-22T03:50:21.719Z,92.44
2019-05-22T03:51:20.706Z,93.05
2019-05-22T03:52:20.692Z,92.94
2019-05-22T03:53:20.684Z,92.94
2019-05-22T03:54:20.671Z,92.74
2019-05-22T03:55:20.699Z,93.05
2019-05-22T03:56:20.650Z,93.35
2019-05-22T03:57:20.639Z,93.35
2019-05-22T03:58:20.642Z,93.25
2019-05-22T03:59:20.618Z,93.45
2019-05-22T04:00:20.609Z,93.25
2019-05-22T04:01:20.629Z,93.25
2019-05-22T04:02:20.586Z,93.09
2019-05-22T04:03:20.576Z,92.99
2019-05-22T04:04:20.579Z,92.79
2019-05-22T04:05:20.555Z,93.40
2019-05-22T04:06:20.584Z,93.40
2019-05-22T04:07:20.535Z,93.40
2019-05-22T04:08:20.528Z,92.89
2019-05-22T04:09:20.510Z,93.49
2019-05-22T04:10:20.499Z,93.40
2019-05-22T04:11:20.488Z,93.29
2019-05-22T04:12:20.515Z,93.44
2019-05-22T04:13:20.467Z,93.24
2019-05-22T04:14:20.458Z,94.05
2019-05-22T04:15:20.447Z,93.60
2019-05-22T04:16:20.436Z,94.25
2019-05-22T04:17:20.423Z,94.05
2019-05-22T04:18:22.852Z,94.15
2019-05-22T04:19:20.403Z,93.95
2019-05-22T04:20:20.397Z,93.95
2019-05-22T04:21:20.385Z,94.35
2019-05-22T04:22:20.370Z,94.20
2019-05-22T04:23:20.361Z,94.66
2019-05-22T04:24:20.375Z,94.20
2019-05-22T04:25:20.341Z,94.29
2019-05-22T04:26:20.333Z,93.99
2019-05-22T04:27:20.408Z,94.66
2019-05-22T04:28:20.305Z,94.50
2019-05-22T04:29:20.322Z,94.70
2019-05-22T04:30:20.285Z,94.09
2019-05-22T04:31:20.273Z,94.20
2019-05-22T04:32:20.412Z,94.40
2019-05-22T04:33:20.252Z,93.79
2019-05-22T04:34:20.321Z,94.20
2019-05-22T04:35:20.231Z,93.99
2019-05-22T04:36:20.220Z,93.89
2019-05-22T04:37:20.214Z,93.59
2019-05-22T04:38:20.202Z,93.68
2019-05-22T04:39:20.193Z,93.59
2019-05-22T04:40:20.213Z,93.48
2019-05-22T04:41:20.168Z,93.48
2019-05-22T04:42:20.157Z,93.18
2019-05-22T04:43:20.818Z,93.18
2019-05-22T04:44:20.143Z,93.48
2019-05-22T04:45:20.125Z,93.48
2019-05-22T04:46:20.159Z,93.48
2019-05-22T04:47:20.103Z,93.59
2019-05-22T04:48:20.098Z,93.18
2019-05-22T04:49:20.082Z,93.38
2019-05-22T04:50:20.094Z,93.18
2019-05-22T04:51:20.058Z,93.18
2019-05-22T04:52:20.131Z,93.48
2019-05-22T04:53:20.037Z,93.38
2019-05-22T04:54:20.032Z,93.48
2019-05-22T04:55:20.017Z,93.38
2019-05-22T04:56:20.006Z,93.18
2019-05-22T04:57:20.036Z,93.07
2019-05-22T04:58:19.989Z,93.48
2019-05-22T04:59:19.975Z,93.02
2019-05-22T05:00:19.968Z,93.18
2019-05-22T05:01:19.960Z,93.22
2019-05-22T05:02:19.945Z,93.73
2019-05-22T05:03:19.972Z,93.83
2019-05-22T05:04:19.920Z,93.83
2019-05-22T05:05:19.908Z,94.04
2019-05-22T05:06:19.923Z,93.73
2019-05-22T05:07:19.886Z,93.32
2019-05-22T05:08:19.882Z,93.63
2019-05-22T05:09:19.889Z,93.73
2019-05-22T05:10:19.854Z,93.12
2019-05-22T05:11:19.843Z,92.51
2019-05-22T05:12:19.832Z,92.51
2019-05-22T05:13:19.822Z,92.41
2019-05-22T05:14:19.845Z,91.80
2019-05-22T05:15:19.798Z,91.90
2019-05-22T05:16:19.787Z,91.80
2019-05-22T05:17:19.784Z,91.19
2019-05-22T05:18:19.769Z,91.69
2019-05-22T05:19:19.763Z,91.29
2019-05-22T05:20:22.426Z,91.19
2019-05-22T05:21:19.740Z,91.80
2019-05-22T05:22:19.723Z,91.60
2019-05-22T05:23:19.733Z,91.60
2019-05-22T05:24:19.703Z,91.90
2019-05-22T05:25:19.689Z,91.60
2019-05-22T05:26:19.714Z,91.80
2019-05-22T05:27:19.674Z,90.99
2019-05-22T05:28:25.976Z,91.69
2019-05-22T05:29:19.646Z,91.90
2019-05-22T05:30:19.637Z,90.99
2019-05-22T05:31:19.625Z,91.29
2019-05-22T05:32:19.639Z,92.00
2019-05-22T05:33:19.607Z,91.80
2019-05-22T05:34:19.591Z,91.60
2019-05-22T05:35:19.584Z,91.80
2019-05-22T05:36:19.569Z,91.80
2019-05-22T05:37:19.596Z,90.99
2019-05-22T05:38:19.549Z,91.69
2019-05-22T05:39:19.539Z,90.58
2019-05-22T05:40:19.525Z,90.48
2019-05-22T05:41:19.523Z,90.48
2019-05-22T05:42:19.543Z,91.49
2019-05-22T05:43:19.494Z,90.78
2019-05-22T05:44:19.486Z,90.37
2019-05-22T05:45:19.473Z,91.53
2019-05-22T05:46:19.460Z,91.49
2019-05-22T05:47:19.452Z,91.29
2019-05-22T05:48:19.463Z,91.23
2019-05-22T05:49:19.426Z,91.80
2019-05-22T05:50:19.428Z,91.33
2019-05-22T05:51:19.404Z,90.99
2019-05-22T05:52:19.396Z,91.43
2019-05-22T05:53:19.413Z,90.68
2019-05-22T05:54:19.370Z,91.29
2019-05-22T05:55:19.361Z,91.19
2019-05-22T05:56:19.349Z,91.19
2019-05-22T05:57:19.340Z,91.09
2019-05-22T05:58:19.366Z,91.69
2019-05-22T05:59:19.317Z,90.99
2019-05-22T06:00:19.317Z,91.39
2019-05-22T06:01:19.299Z,90.99
2019-05-22T06:02:19.282Z,91.80
2019-05-22T06:03:19.275Z,91.53
2019-05-22T06:04:32.207Z,91.13
2019-05-22T06:05:20.249Z,91.03
2019-05-22T06:06:19.242Z,92.14
2019-05-22T06:07:19.234Z,91.74
2019-05-22T06:08:19.216Z,92.04
2019-05-22T06:09:19.249Z,91.43
2019-05-22T06:10:19.195Z,91.64
2019-05-22T06:11:19.185Z,91.74
2019-05-22T06:12:19.174Z,91.23
2019-05-22T06:13:19.161Z,91.03
2019-05-22T06:14:19.151Z,91.64
2019-05-22T06:15:19.163Z,91.13
2019-05-22T06:16:19.131Z,91.84
2019-05-22T06:17:19.117Z,91.84
2019-05-22T06:18:19.105Z,91.13
2019-05-22T06:19:19.095Z,91.03
2019-05-22T06:20:19.127Z,91.64
2019-05-22T06:21:19.072Z,90.52
2019-05-22T06:22:19.063Z,91.53
2019-05-22T06:23:19.053Z,91.17
2019-05-22T06:24:19.040Z,91.17
2019-05-22T06:25:19.031Z,91.88
2019-05-22T06:26:19.059Z,91.38
2019-05-22T06:27:19.028Z,91.88
2019-05-22T06:28:18.996Z,91.99
2019-05-22T06:29:18.986Z,92.09
2019-05-22T06:30:18.973Z,92.40
2019-05-22T06:31:18.962Z,92.04
2019-05-22T06:32:18.981Z,91.74
2019-05-22T06:33:18.939Z,91.88
2019-05-22T06:34:18.929Z,91.84
2019-05-22T06:35:18.946Z,92.29
2019-05-22T06:36:18.907Z,92.60
2019-05-22T06:37:18.933Z,91.78
2019-05-22T06:38:18.885Z,92.09
2019-05-22T06:39:18.878Z,91.88
2019-05-22T06:40:18.864Z,91.27
2019-05-22T06:41:18.855Z,91.88
2019-05-22T06:42:18.841Z,91.07
2019-05-22T06:43:18.872Z,91.78
2019-05-22T06:44:18.820Z,91.78
2019-05-22T06:45:18.808Z,91.78
2019-05-22T06:46:18.799Z,91.88
2019-05-22T06:47:18.784Z,90.92
2019-05-22T06:48:18.775Z,91.38
2019-05-22T06:49:18.827Z,91.38
2019-05-22T06:50:18.752Z,91.38
2019-05-22T06:51:19.642Z,91.13
2019-05-22T06:52:18.771Z,90.92
2019-05-22T06:53:18.721Z,91.07
2019-05-22T06:54:18.708Z,90.11
2019-05-22T06:55:18.722Z,90.56
2019-05-22T06:56:18.686Z,90.36
2019-05-22T06:57:18.684Z,90.22
2019-05-22T06:58:18.665Z,90.31
2019-05-22T06:59:18.654Z,90.72
2019-05-22T07:00:18.667Z,91.13
2019-05-22T07:01:18.632Z,91.13
2019-05-22T07:02:18.631Z,91.53
2019-05-22T07:03:18.608Z,90.92
2019-05-22T07:04:18.598Z,91.23
2019-05-22T07:05:18.618Z,90.62
2019-05-22T07:06:18.577Z,90.22
2019-05-22T07:07:18.566Z,90.52
2019-05-22T07:08:18.554Z,90.31
2019-05-22T07:09:18.546Z,90.52
2019-05-22T07:10:18.573Z,90.62
2019-05-22T07:11:18.521Z,90.83
2019-05-22T07:12:18.510Z,91.33
2019-05-22T07:13:18.498Z,90.92
2019-05-22T07:14:18.489Z,91.64
2019-05-22T07:15:18.483Z,91.94
2019-05-22T07:16:18.508Z,91.13
2019-05-22T07:17:18.455Z,90.92
2019-05-22T07:18:18.442Z,90.72
2019-05-22T07:19:18.444Z,91.33
2019-05-22T07:20:18.458Z,91.07
2019-05-22T07:21:18.446Z,91.33
2019-05-22T07:22:18.402Z,91.23
2019-05-22T07:23:18.394Z,91.78
2019-05-22T07:24:18.386Z,91.84
2019-05-22T07:25:18.367Z,91.23
2019-05-22T07:26:18.354Z,91.64
2019-05-22T07:27:18.380Z,91.88
2019-05-22T07:28:18.377Z,91.74
2019-05-22T07:29:18.325Z,92.09
2019-05-22T07:30:18.314Z,91.84
2019-05-22T07:31:18.301Z,91.99
2019-05-22T07:32:18.293Z,91.58
2019-05-22T07:33:18.306Z,92.49
2019-05-22T07:34:18.274Z,92.09
2019-05-22T07:35:18.265Z,92.19
2019-05-22T07:36:18.244Z,92.19
2019-05-22T07:37:18.233Z,91.99
2019-05-22T07:38:18.259Z,92.23
2019-05-22T07:39:18.219Z,92.60
2019-05-22T07:40:18.966Z,92.09
2019-05-22T07:41:18.193Z,91.68
2019-05-22T07:42:18.181Z,91.68
2019-05-22T07:43:18.206Z,92.09
2019-05-22T07:44:18.234Z,91.99
2019-05-22T07:45:18.148Z,91.64
2019-05-22T07:46:18.140Z,91.48
2019-05-22T07:47:18.131Z,91.38
2019-05-22T07:48:18.113Z,91.68
2019-05-22T07:49:18.108Z,91.74
2019-05-22T07:50:18.139Z,91.88
2019-05-22T07:51:18.106Z,91.33
2019-05-22T07:52:18.070Z,91.33
2019-05-22T07:53:18.061Z,90.77
2019-05-22T07:54:18.047Z,91.38
2019-05-22T07:55:18.039Z,90.66
2019-05-22T07:56:18.051Z,90.16
2019-05-22T07:57:18.014Z,90.20
2019-05-22T07:58:18.022Z,90.66
2019-05-22T07:59:17.996Z,90.66
2019-05-22T08:00:18.000Z,90.66
2019-05-22T08:01:17.998Z,90.46
2019-05-22T08:02:17.961Z,90.25
2019-05-22T08:03:17.950Z,90.16
2019-05-22T08:04:17.937Z,90.66
2019-05-22T08:05:17.935Z,90.56
2019-05-22T08:06:17.961Z,90.16
2019-05-22T08:07:17.906Z,90.77
2019-05-22T08:08:18.880Z,90.05
2019-05-22T08:09:17.890Z,90.25
2019-05-22T08:10:17.880Z,90.86
2019-05-22T08:11:17.861Z,91.58
2019-05-22T08:12:17.887Z,90.56
2019-05-22T08:13:17.838Z,90.46
2019-05-22T08:14:17.827Z,90.25
2019-05-22T08:15:17.836Z,90.56
2019-05-22T08:16:17.809Z,90.36
2019-05-22T08:17:17.794Z,90.60
2019-05-22T08:18:17.825Z,90.77
2019-05-22T08:19:17.773Z,90.97
2019-05-22T08:20:17.762Z,90.25
2019-05-22T08:21:17.752Z,90.81
2019-05-22T08:22:17.748Z,91.48
2019-05-22T08:23:17.733Z,91.27
2019-05-22T08:24:17.746Z,91.27
2019-05-22T08:25:17.717Z,90.16
2019-05-22T08:26:17.703Z,90.62
2019-05-22T08:27:17.692Z,90.05
2019-05-22T08:28:17.680Z,89.95
2019-05-22T08:29:17.703Z,89.54
2019-05-22T08:30:17.660Z,89.44
2019-05-22T08:31:17.645Z,90.16
2019-05-22T08:32:17.640Z,89.95
2019-05-22T08:33:17.625Z,89.75
2019-05-22T08:34:17.614Z,89.95
2019-05-22T08:35:17.643Z,89.64
2019-05-22T08:36:17.596Z,89.85
2019-05-22T08:37:17.596Z,90.25
2019-05-22T08:38:17.570Z,90.25
2019-05-22T08:39:17.559Z,90.66
2019-05-22T08:40:17.547Z,90.66
2019-05-22T08:41:17.567Z,90.56
2019-05-22T08:42:17.525Z,91.22
2019-05-22T08:43:17.515Z,91.42
2019-05-22T08:44:17.934Z,91.52
2019-05-22T08:45:17.500Z,91.17
2019-05-22T08:46:17.546Z,90.60
2019-05-22T08:47:17.471Z,90.60
2019-05-22T08:48:17.469Z,90.40
2019-05-22T08:49:17.451Z,90.60
2019-05-22T08:50:17.439Z,91.62
2019-05-22T08:51:17.429Z,91.62
2019-05-22T08:52:23.520Z,90.40
2019-05-22T08:53:18.407Z,89.69
2019-05-22T08:54:17.397Z,90.40
2019-05-22T08:55:17.393Z,90.60
2019-05-22T08:56:17.376Z,90.50
2019-05-22T08:57:17.362Z,90.60
2019-05-22T08:58:17.396Z,89.79
2019-05-22T08:59:19.798Z,89.69
2019-05-22T09:00:17.331Z,89.99
2019-05-22T09:01:17.320Z,89.69
2019-05-22T09:02:17.310Z,89.69
2019-05-22T09:03:17.299Z,89.89
2019-05-22T09:04:17.313Z,89.89
2019-05-22T09:05:20.909Z,89.89
2019-05-22T09:06:17.272Z,89.59
2019-05-22T09:07:17.257Z,89.89
2019-05-22T09:08:17.250Z,89.69
2019-05-22T09:09:17.279Z,89.99
2019-05-22T09:10:17.244Z,89.69
2019-05-22T09:11:17.215Z,89.54
2019-05-22T09:12:17.208Z,89.34
2019-05-22T09:13:17.194Z,88.73
2019-05-22T09:14:17.196Z,89.14
2019-05-22T09:15:17.209Z,89.54
2019-05-22T09:16:17.163Z,88.73
2019-05-22T09:17:17.149Z,88.73
2019-05-22T09:18:17.142Z,88.32
2019-05-22T09:19:17.129Z,88.63
2019-05-22T09:20:17.117Z,88.59
2019-05-22T09:21:17.133Z,88.73
2019-05-22T09:22:17.388Z,88.79
2019-05-22T09:23:17.084Z,88.42
2019-05-22T09:24:17.083Z,88.08
2019-05-22T09:25:17.304Z,88.18
2019-05-22T09:26:17.087Z,86.96
2019-05-22T09:27:17.043Z,87.06
2019-05-22T09:28:17.031Z,87.26
2019-05-22T09:29:17.023Z,87.26
2019-05-22T09:30:17.015Z,87.47
2019-05-22T09:31:17.000Z,87.06
2019-05-22T09:32:17.027Z,87.16
2019-05-22T09:33:16.976Z,87.26
2019-05-22T09:34:16.967Z,87.06
2019-05-22T09:35:16.959Z,87.16
2019-05-22T09:36:16.997Z,87.06
2019-05-22T09:37:16.936Z,86.86
2019-05-22T09:38:16.960Z,87.12
2019-05-22T09:39:16.912Z,87.16
2019-05-22T09:40:16.901Z,86.96
2019-05-22T09:41:16.898Z,87.12
2019-05-22T09:42:16.969Z,87.16
2019-05-22T09:43:16.867Z,87.16
2019-05-22T09:44:16.883Z,87.26
2019-05-22T09:45:16.847Z,87.02
2019-05-22T09:46:16.833Z,86.92
2019-05-22T09:47:16.822Z,87.02
2019-05-22T09:48:16.811Z,86.61
2019-05-22T09:49:16.835Z,86.61
2019-05-22T09:50:16.792Z,86.41
2019-05-22T09:51:16.777Z,85.90
2019-05-22T09:52:16.783Z,85.86
2019-05-22T09:53:16.755Z,86.00
2019-05-22T09:54:16.745Z,85.76
2019-05-22T09:55:16.773Z,86.27
2019-05-22T09:56:16.729Z,85.46
2019-05-22T09:57:16.712Z,85.35
2019-05-22T09:58:16.709Z,85.86
2019-05-22T09:59:16.693Z,86.16
2019-05-22T10:00:16.680Z,86.07
2019-05-22T10:01:16.710Z,86.07
2019-05-22T10:02:16.658Z,86.27
2019-05-22T10:03:16.647Z,86.47
2019-05-22T10:04:16.643Z,86.57
2019-05-22T10:05:16.628Z,86.57
2019-05-22T10:06:16.652Z,86.27
2019-05-22T10:07:16.605Z,86.07
2019-05-22T10:08:16.594Z,86.37
2019-05-22T10:09:16.584Z,86.37
2019-05-22T10:10:16.579Z,86.37
2019-05-22T10:11:16.562Z,86.53
2019-05-22T10:12:16.589Z,86.53
2019-05-22T10:13:16.596Z,86.57
2019-05-22T10:14:16.543Z,85.82
2019-05-22T10:15:16.518Z,85.96
2019-05-22T10:16:16.510Z,86.16
2019-05-22T10:17:16.497Z,86.57
2019-05-22T10:18:16.535Z,86.47
2019-05-22T10:19:16.479Z,86.68
2019-05-22T10:20:16.466Z,86.37
2019-05-22T10:21:16.457Z,86.57
2019-05-22T10:22:16.446Z,87.29
2019-05-22T10:23:16.604Z,86.57
2019-05-22T10:24:16.457Z,86.16
2019-05-22T10:25:17.078Z,86.37
2019-05-22T10:26:16.406Z,86.98
2019-05-22T10:27:16.396Z,86.98
2019-05-22T10:28:16.382Z,87.29
2019-05-22T10:29:16.455Z,87.59
2019-05-22T10:30:16.360Z,87.79
2019-05-22T10:31:17.846Z,87.69
2019-05-22T10:32:16.338Z,87.49
2019-05-22T10:33:16.329Z,87.02
2019-05-22T10:34:16.317Z,87.29
2019-05-22T10:35:16.365Z,87.18
2019-05-22T10:36:16.298Z,87.23
2019-05-22T10:37:16.286Z,87.63
2019-05-22T10:38:16.349Z,88.34
2019-05-22T10:39:16.274Z,87.93
2019-05-22T10:40:16.253Z,88.10
2019-05-22T10:41:16.272Z,87.99
2019-05-22T10:42:16.230Z,87.08
2019-05-22T10:43:16.263Z,87.08
2019-05-22T10:44:16.210Z,87.18
2019-05-22T10:45:16.204Z,87.08
2019-05-22T10:46:16.224Z,87.18
2019-05-22T10:47:18.597Z,87.08
2019-05-22T10:48:16.170Z,86.98
2019-05-22T10:49:16.158Z,87.18
2019-05-22T10:50:16.144Z,87.18
2019-05-22T10:51:16.134Z,87.38
2019-05-22T10:52:16.158Z,87.43
2019-05-22T10:53:32.377Z,87.79
2019-05-22T10:54:17.099Z,88.10
2019-05-22T10:55:16.104Z,88.40
2019-05-22T10:56:16.080Z,88.30
2019-05-22T10:57:16.070Z,87.69
2019-05-22T10:58:16.117Z,87.84
2019-05-22T10:59:16.054Z,88.04
2019-05-22T11:00:16.039Z,87.93
2019-05-22T11:01:16.026Z,88.04
2019-05-22T11:02:16.014Z,87.73
2019-05-22T11:03:16.004Z,87.63
2019-05-22T11:04:19.242Z,88.13
2019-05-22T11:05:15.989Z,88.24
2019-05-22T11:06:15.972Z,87.84
2019-05-22T11:07:15.960Z,87.93
2019-05-22T11:08:15.950Z,88.04
2019-05-22T11:09:15.973Z,87.53
2019-05-22T11:10:15.930Z,87.53
2019-05-22T11:11:15.925Z,88.04
2019-05-22T11:12:15.905Z,87.43
2019-05-22T11:13:15.902Z,87.29
2019-05-22T11:14:15.883Z,87.12
2019-05-22T11:15:15.912Z,86.88
2019-05-22T11:16:15.861Z,86.98
2019-05-22T11:17:15.851Z,86.57
2019-05-22T11:18:15.843Z,86.37
2019-05-22T11:19:15.830Z,86.37
2019-05-22T11:20:15.821Z,85.86
2019-05-22T11:21:15.836Z,85.96
2019-05-22T11:22:15.797Z,85.86
2019-05-22T11:23:15.787Z,86.27
2019-05-22T11:24:15.777Z,86.02
2019-05-22T11:25:15.765Z,86.02
2019-05-22T11:26:15.790Z,85.96
2019-05-22T11:27:15.746Z,85.96
2019-05-22T11:28:15.739Z,86.57
2019-05-22T11:29:21.983Z,86.61
2019-05-22T11:30:15.717Z,86.77
2019-05-22T11:31:15.706Z,87.08
2019-05-22T11:32:15.733Z,87.23
2019-05-22T11:33:15.676Z,87.02
2019-05-22T11:34:15.666Z,87.02
2019-05-22T11:35:15.686Z,87.12
2019-05-22T11:36:15.646Z,87.53
2019-05-22T11:37:15.639Z,88.04
2019-05-22T11:38:15.706Z,88.18
2019-05-22T11:39:15.610Z,88.75
2019-05-22T11:40:15.603Z,88.69
2019-05-22T11:41:15.591Z,88.48
2019-05-22T11:42:15.603Z,89.00
2019-05-22T11:43:15.566Z,89.20
2019-05-22T11:44:15.583Z,89.15
2019-05-22T11:45:15.548Z,89.30
2019-05-22T11:46:15.540Z,89.56
2019-05-22T11:47:15.524Z,88.89
2019-05-22T11:48:15.520Z,88.59
2019-05-22T11:49:15.539Z,89.50
2019-05-22T11:50:15.490Z,89.00
2019-05-22T11:51:15.477Z,89.30
2019-05-22T11:52:15.473Z,89.50
2019-05-22T11:53:15.458Z,89.61
2019-05-22T11:54:15.444Z,89.81
2019-05-22T11:55:15.470Z,89.61
2019-05-22T11:56:15.424Z,90.11
2019-05-22T11:57:15.410Z,89.61
2019-05-22T11:58:15.404Z,89.66
2019-05-22T11:59:15.388Z,89.70
2019-05-22T12:00:15.379Z,89.66
2019-05-22T12:01:15.396Z,90.11
2019-05-22T12:02:15.357Z,89.50
2019-05-22T12:03:15.357Z,88.85
2019-05-22T12:04:15.338Z,88.48
2019-05-22T12:05:15.332Z,88.18
2019-05-22T12:06:15.352Z,87.87
2019-05-22T12:07:15.300Z,88.59
2019-05-22T12:08:15.290Z,88.48
2019-05-22T12:09:15.279Z,89.00
2019-05-22T12:10:15.267Z,88.18
2019-05-22T12:11:15.275Z,88.18
2019-05-22T12:12:15.285Z,88.18
2019-05-22T12:13:15.235Z,88.28
2019-05-22T12:14:15.225Z,88.08
2019-05-22T12:15:15.225Z,88.18
2019-05-22T12:16:15.212Z,87.77
2019-05-22T12:17:15.190Z,88.48
2019-05-22T12:18:15.225Z,88.28
2019-05-22T12:19:15.173Z,87.67
2019-05-22T12:20:15.168Z,88.08
2019-05-22T12:21:15.148Z,87.37
2019-05-22T12:22:15.139Z,87.26
2019-05-22T12:23:15.129Z,87.26
2019-05-22T12:24:27.135Z,87.06
2019-05-22T12:25:16.102Z,86.96
2019-05-22T12:26:15.093Z,87.26
2019-05-22T12:27:15.082Z,87.06
2019-05-22T12:28:15.069Z,87.16
2019-05-22T12:29:17.308Z,87.37
2019-05-22T12:30:15.248Z,87.47
2019-05-22T12:31:15.054Z,87.26
2019-05-22T12:32:15.023Z,86.96
2019-05-22T12:33:15.022Z,86.51
2019-05-22T12:34:15.023Z,86.21
2019-05-22T12:35:15.047Z,86.51
2019-05-22T12:36:14.995Z,86.71
2019-05-22T12:37:14.976Z,86.41
2019-05-22T12:38:14.966Z,86.51
2019-05-22T12:39:14.952Z,86.61
2019-05-22T12:40:14.935Z,86.71
2019-05-22T12:41:14.953Z,86.51
2019-05-22T12:42:14.916Z,86.51
2019-05-22T12:43:14.925Z,86.51
2019-05-22T12:44:14.893Z,86.61
2019-05-22T12:45:14.887Z,86.51
2019-05-22T12:46:14.877Z,86.51
2019-05-22T12:47:14.911Z,86.25
2019-05-22T12:48:14.855Z,86.15
2019-05-22T12:49:14.844Z,86.04
2019-05-22T12:50:14.826Z,86.35
2019-05-22T12:51:14.820Z,86.25
2019-05-22T12:52:14.803Z,86.35